首页
METAR-TAF:

METAR-TAF

机场 :

威尔·罗杰斯世界机场

奧克拉荷馬, 奧克拉荷馬州, 美国

纬度: 35-23-19N, 经度: 097-36-01W, 海拔: 394米

当前天气观测

该预报发布于14分钟前的19:52 UTC
风速15节,风向南转南东,有时为24节阵风
温度 33°C
湿度 41%
气压 1012 hPa
能見度: 16.1公里
散云层高于25000英尺

METAR: KOKC 151952Z 16015G24KT 10SM SCT250 33/18 A2988 RMK AO2 SLP100 T03280183

时间: 15:06 (20:06 UTC)

预报

该预报发布于2小时和43分钟前的17:23 UTC
预报有效从15日的 18点(UTC)到 16日的 18点(UTC)
风速14节,风向,有时为22节阵风
能見度: 10公里
散云层高于25000英尺
从 16日的 0100点(UTC)
风速12节,风向南转南东
能見度: 10公里
散云层高于12000英尺
多云层高于25000英尺
从 16日的 1400点(UTC)
风速15节,风向,有时为25节阵风
能見度: 10公里
散云层高于10000英尺
多云层高于25000英尺

TAF: KOKC 151723Z 1518/1618 17014G22KT P6SM SCT250 FM160100 16012KT P6SM SCT120 BKN250 FM161400 18015G25KT P6SM SCT100 BKN250

超过4000个机场的气象观测和天气预报(METAR&TAF报告)。

可查询的气象台以黄色和红色小点在地图上表示。

将鼠标移到小点上方,可查看气象台名称。

然后点击查看天气观测和预报。

如需切换地图:点击带黑十字的绿色按钮放大地图;点击带横线的绿色按钮缩小地图;或者点击绿色箭头查看邻近地区的地图。


METAR-TAF: